createdAt,value
2018-10-21T00:00:54.571Z,9.38
2018-10-21T00:03:23.218Z,9.30
2018-10-21T00:05:51.853Z,9.25
2018-10-21T00:08:20.687Z,9.13
2018-10-21T00:10:49.420Z,9.07
2018-10-21T00:13:18.014Z,8.99
2018-10-21T00:15:46.631Z,8.91
2018-10-21T00:18:15.306Z,8.78
2018-10-21T00:20:43.943Z,8.76
2018-10-21T00:23:12.507Z,8.73
2018-10-21T00:25:41.088Z,8.66
2018-10-21T00:28:09.713Z,8.61
2018-10-21T00:30:38.336Z,8.56
2018-10-21T00:33:06.973Z,8.54
2018-10-21T00:35:35.598Z,8.52
2018-10-21T00:38:04.185Z,8.47
2018-10-21T00:40:32.818Z,8.46
2018-10-21T00:45:35.262Z,8.41
2018-10-21T00:48:03.870Z,8.40
2018-10-21T00:50:32.541Z,8.38
2018-10-21T00:53:01.161Z,8.33
2018-10-21T00:55:29.802Z,8.32
2018-10-21T00:57:58.401Z,8.32
2018-10-21T01:00:27.074Z,8.27
2018-10-21T01:02:55.704Z,8.25
2018-10-21T01:05:24.273Z,8.19
2018-10-21T01:07:52.929Z,8.19
2018-10-21T01:10:21.535Z,8.19
2018-10-21T01:12:50.171Z,8.21
2018-10-21T01:15:18.849Z,8.23
2018-10-21T01:17:47.386Z,8.18
2018-10-21T01:20:16.022Z,8.13
2018-10-21T01:22:45.245Z,8.13
2018-10-21T01:25:13.814Z,8.15
2018-10-21T01:27:42.862Z,8.16
2018-10-21T01:30:12.636Z,8.12
2018-10-21T01:32:44.167Z,8.07
2018-10-21T01:35:12.805Z,8.05
2018-10-21T01:37:41.418Z,8.07
2018-10-21T01:40:43.274Z,8.09
2018-10-21T01:43:13.335Z,8.03
2018-10-21T01:45:41.911Z,8.03
2018-10-21T01:48:11.692Z,8.09
2018-10-21T01:50:40.282Z,8.08
2018-10-21T01:53:09.922Z,8.14
2018-10-21T01:55:38.564Z,8.09
2018-10-21T01:58:07.334Z,8.12
2018-10-21T02:00:36.294Z,8.15
2018-10-21T02:03:05.249Z,8.15
2018-10-21T02:05:34.538Z,8.19
2018-10-21T02:08:03.185Z,8.23
2018-10-21T02:10:31.818Z,8.27
2018-10-21T02:13:00.413Z,8.25
2018-10-21T02:15:29.033Z,8.17
2018-10-21T02:17:57.613Z,8.10
2018-10-21T02:20:26.537Z,8.10
2018-10-21T02:22:55.246Z,8.17
2018-10-21T02:25:23.809Z,8.15
2018-10-21T02:27:53.017Z,8.07
2018-10-21T02:30:23.788Z,8.11
2018-10-21T02:32:52.940Z,8.10
2018-10-21T02:35:22.004Z,7.98
2018-10-21T02:37:51.075Z,7.85
2018-10-21T02:41:37.210Z,7.96
2018-10-21T02:44:07.078Z,8.04
2018-10-21T02:46:36.435Z,8.23
2018-10-21T02:49:05.954Z,8.23
2018-10-21T02:51:34.574Z,8.31
2018-10-21T02:54:03.217Z,8.34
2018-10-21T02:56:31.809Z,8.38
2018-10-21T02:59:00.446Z,8.38
2018-10-21T03:01:29.033Z,8.47
2018-10-21T03:03:57.641Z,8.52
2018-10-21T03:06:26.244Z,8.59
2018-10-21T03:08:54.852Z,8.70
2018-10-21T03:11:23.526Z,8.75
2018-10-21T03:13:52.154Z,8.75
2018-10-21T03:18:54.665Z,8.76
2018-10-21T03:21:23.294Z,8.81
2018-10-21T03:23:52.025Z,8.91
2018-10-21T03:26:20.650Z,8.93
2018-10-21T03:28:49.304Z,8.98
2018-10-21T03:31:17.961Z,8.96
2018-10-21T03:33:46.648Z,9.01
2018-10-21T03:36:33.490Z,8.94
2018-10-21T03:39:02.194Z,9.06
2018-10-21T03:41:43.149Z,9.12
2018-10-21T03:44:11.849Z,9.20
2018-10-21T03:46:40.610Z,9.19
2018-10-21T03:49:09.254Z,9.24
2018-10-21T03:51:37.906Z,9.18
2018-10-21T03:54:06.679Z,9.24
2018-10-21T03:56:35.316Z,9.32
2018-10-21T03:59:03.928Z,9.30
2018-10-21T04:01:32.547Z,9.28
2018-10-21T04:04:01.280Z,9.30
2018-10-21T04:06:29.852Z,9.35
2018-10-21T04:08:58.445Z,9.33
2018-10-21T04:11:27.071Z,9.39
2018-10-21T04:13:55.667Z,9.38
2018-10-21T04:16:24.254Z,9.45
2018-10-21T04:18:52.934Z,9.49
2018-10-21T04:21:21.513Z,9.54
2018-10-21T04:23:50.090Z,9.64
2018-10-21T04:26:18.688Z,9.52
2018-10-21T04:28:47.363Z,9.63
2018-10-21T04:31:15.962Z,9.54
2018-10-21T04:33:45.717Z,9.59
2018-10-21T04:36:21.068Z,9.53
2018-10-21T04:39:58.897Z,9.50
2018-10-21T04:42:27.603Z,9.52
2018-10-21T04:44:56.319Z,9.56
2018-10-21T04:47:24.941Z,9.61
2018-10-21T04:49:53.681Z,9.48
2018-10-21T04:52:22.514Z,9.47
2018-10-21T04:54:51.141Z,9.47
2018-10-21T04:57:19.761Z,9.33
2018-10-21T04:59:48.426Z,9.43
2018-10-21T05:02:17.074Z,9.39
2018-10-21T05:04:46.237Z,9.35
2018-10-21T05:07:14.831Z,9.41
2018-10-21T05:09:43.760Z,9.37
2018-10-21T05:12:12.425Z,9.52
2018-10-21T05:14:41.149Z,9.48
2018-10-21T05:17:09.724Z,9.50
2018-10-21T05:19:38.351Z,9.53
2018-10-21T05:22:07.560Z,9.59
2018-10-21T05:24:36.536Z,9.55
2018-10-21T05:27:05.885Z,9.67
2018-10-21T05:29:34.473Z,9.68
2018-10-21T05:32:03.457Z,9.64
2018-10-21T05:37:06.639Z,9.54
2018-10-21T05:39:35.357Z,9.58
2018-10-21T05:42:04.525Z,9.52
2018-10-21T05:44:33.174Z,9.61
2018-10-21T05:47:01.966Z,9.57
2018-10-21T05:49:30.553Z,9.53
2018-10-21T05:51:59.425Z,9.49
2018-10-21T05:54:28.017Z,9.55
2018-10-21T05:56:56.989Z,9.52
2018-10-21T05:59:25.646Z,9.50
2018-10-21T06:01:54.250Z,9.58
2018-10-21T06:04:22.889Z,9.51
2018-10-21T06:06:51.569Z,9.54
2018-10-21T06:09:20.132Z,9.55
2018-10-21T06:11:48.766Z,9.54
2018-10-21T06:14:17.363Z,9.48
2018-10-21T06:16:56.801Z,9.52
2018-10-21T06:19:30.456Z,9.53
2018-10-21T06:21:59.130Z,9.53
2018-10-21T06:24:27.979Z,9.54
2018-10-21T06:26:56.654Z,9.58
2018-10-21T06:29:25.230Z,9.60
2018-10-21T06:31:53.933Z,9.51
2018-10-21T06:34:22.568Z,9.48
2018-10-21T06:36:51.270Z,9.54
2018-10-21T06:39:19.840Z,9.51
2018-10-21T06:41:48.468Z,9.46
2018-10-21T06:44:17.106Z,9.55
2018-10-21T06:46:45.795Z,9.62
2018-10-21T06:49:14.460Z,9.68
2018-10-21T06:51:43.119Z,9.71
2018-10-21T06:54:11.774Z,9.73
2018-10-21T06:56:40.553Z,9.57
2018-10-21T06:59:09.093Z,9.60
2018-10-21T07:01:37.707Z,9.57
2018-10-21T07:04:07.029Z,9.63
2018-10-21T07:06:35.609Z,9.60
2018-10-21T07:09:06.069Z,9.54
2018-10-21T07:11:34.845Z,9.54
2018-10-21T07:14:03.486Z,9.63
2018-10-21T07:16:32.214Z,9.84
2018-10-21T07:19:00.773Z,9.68
2018-10-21T07:21:29.430Z,9.63
2018-10-21T07:23:58.016Z,9.66
2018-10-21T07:26:26.657Z,9.60
2018-10-21T07:28:55.279Z,9.51
2018-10-21T07:31:23.890Z,9.58
2018-10-21T07:33:52.539Z,9.57
2018-10-21T07:36:21.262Z,9.54
2018-10-21T07:38:49.807Z,9.65
2018-10-21T07:41:18.493Z,9.76
2018-10-21T07:43:47.089Z,9.79
2018-10-21T07:46:15.807Z,9.79
2018-10-21T07:48:44.462Z,9.93
2018-10-21T07:51:13.115Z,9.84
2018-10-21T07:53:41.761Z,9.78
2018-10-21T07:56:10.448Z,9.79
2018-10-21T07:58:39.173Z,9.88
2018-10-21T08:01:08.000Z,9.98
2018-10-21T08:03:36.585Z,9.98
2018-10-21T08:06:27.375Z,9.93
2018-10-21T08:08:56.053Z,9.97
2018-10-21T08:11:24.713Z,9.98
2018-10-21T08:13:53.362Z,10.08
2018-10-21T08:16:22.334Z,10.16
2018-10-21T08:18:51.567Z,10.20
2018-10-21T08:21:20.236Z,10.11
2018-10-21T08:23:48.903Z,10.06
2018-10-21T08:26:17.576Z,9.88
2018-10-21T08:28:46.277Z,9.79
2018-10-21T08:31:14.939Z,9.65
2018-10-21T08:33:43.654Z,9.62
2018-10-21T08:36:12.734Z,9.52
2018-10-21T08:38:41.617Z,9.63
2018-10-21T08:41:10.325Z,9.75
2018-10-21T08:43:39.021Z,9.93
2018-10-21T08:46:08.296Z,9.96
2018-10-21T08:48:38.155Z,10.12
2018-10-21T08:51:11.408Z,10.05
2018-10-21T08:53:40.083Z,10.28
2018-10-21T08:56:08.864Z,10.24
2018-10-21T08:58:38.514Z,10.41
2018-10-21T09:01:07.209Z,10.40
2018-10-21T09:03:35.871Z,10.33
2018-10-21T09:06:04.561Z,10.19
2018-10-21T09:08:34.446Z,10.19
2018-10-21T09:11:06.448Z,10.28
2018-10-21T09:13:44.777Z,10.41
2018-10-21T09:16:13.506Z,10.37
2018-10-21T09:18:42.360Z,10.35
2018-10-21T09:21:13.375Z,10.26
2018-10-21T09:23:42.224Z,10.36
2018-10-21T09:26:10.939Z,10.19
2018-10-21T09:28:39.660Z,10.39
2018-10-21T09:31:08.560Z,10.49
2018-10-21T09:33:37.373Z,10.72
2018-10-21T09:36:06.059Z,10.90
2018-10-21T09:38:42.099Z,10.81
2018-10-21T09:41:13.095Z,10.77
2018-10-21T09:46:23.844Z,10.50
2018-10-21T09:48:52.645Z,10.58
2018-10-21T09:51:21.355Z,10.56
2018-10-21T09:53:50.216Z,10.73
2018-10-21T09:56:25.456Z,10.55
2018-10-21T09:59:01.373Z,10.66
2018-10-21T10:01:42.982Z,10.72
2018-10-21T10:04:12.505Z,10.94
2018-10-21T10:06:47.794Z,11.24
2018-10-21T10:09:20.755Z,11.27
2018-10-21T10:11:58.838Z,11.35
2018-10-21T10:14:36.162Z,11.34
2018-10-21T10:17:07.285Z,11.44
2018-10-21T10:19:38.902Z,11.46
2018-10-21T10:22:07.881Z,11.68
2018-10-21T10:24:37.322Z,11.80
2018-10-21T10:27:06.513Z,11.95
2018-10-21T10:29:35.266Z,11.97
2018-10-21T10:32:04.028Z,11.86
2018-10-21T10:34:37.584Z,11.96
2018-10-21T10:37:06.417Z,11.84
2018-10-21T10:39:35.157Z,11.76
2018-10-21T10:42:05.814Z,11.85
2018-10-21T10:44:38.509Z,12.00
2018-10-21T10:47:07.324Z,12.16
2018-10-21T10:49:36.368Z,12.14
2018-10-21T10:52:05.626Z,11.95
2018-10-21T10:54:34.471Z,11.85
2018-10-21T10:57:03.293Z,11.69
2018-10-21T10:59:32.202Z,11.59
2018-10-21T11:02:01.064Z,11.42
2018-10-21T11:04:29.910Z,11.44
2018-10-21T11:06:58.832Z,11.36
2018-10-21T11:09:27.715Z,11.34
2018-10-21T11:11:56.481Z,11.27
2018-10-21T11:14:25.380Z,11.44
2018-10-21T11:16:54.173Z,11.46
2018-10-21T11:19:24.936Z,11.57
2018-10-21T11:21:53.811Z,11.72
2018-10-21T11:24:22.621Z,11.85
2018-10-21T11:26:51.643Z,11.83
2018-10-21T11:29:20.484Z,11.63
2018-10-21T11:31:49.375Z,11.52
2018-10-21T11:34:18.400Z,11.52
2018-10-21T11:36:47.169Z,11.53
2018-10-21T11:39:16.029Z,11.45
2018-10-21T11:41:44.939Z,11.59
2018-10-21T11:44:13.815Z,11.63
2018-10-21T11:46:42.958Z,11.64
2018-10-21T11:49:17.442Z,11.71
2018-10-21T11:51:46.186Z,11.67
2018-10-21T11:54:15.033Z,11.74
2018-10-21T11:56:43.843Z,11.75
2018-10-21T11:59:12.611Z,11.79
2018-10-21T12:01:41.387Z,11.75
2018-10-21T12:04:10.395Z,11.70
2018-10-21T12:06:39.194Z,11.76
2018-10-21T12:09:11.354Z,11.73
2018-10-21T12:11:40.235Z,11.71
2018-10-21T12:14:09.798Z,11.78
2018-10-21T12:16:38.724Z,11.79
2018-10-21T12:19:07.609Z,11.75
2018-10-21T12:21:41.570Z,11.70
2018-10-21T12:24:10.507Z,11.79
2018-10-21T12:26:39.325Z,11.92
2018-10-21T12:29:08.195Z,12.12
2018-10-21T12:31:37.022Z,12.07
2018-10-21T12:34:05.959Z,11.98
2018-10-21T12:36:34.710Z,12.07
2018-10-21T12:39:04.132Z,12.03
2018-10-21T12:41:32.879Z,11.99
2018-10-21T12:44:01.728Z,11.95
2018-10-21T12:46:30.530Z,11.92
2018-10-21T12:48:59.429Z,11.95
2018-10-21T12:51:28.305Z,11.86
2018-10-21T12:53:57.222Z,11.73
2018-10-21T12:56:26.043Z,11.64
2018-10-21T12:58:54.896Z,11.68
2018-10-21T13:01:24.122Z,11.69
2018-10-21T13:03:52.982Z,11.81
2018-10-21T13:06:21.947Z,11.90
2018-10-21T13:08:50.711Z,11.91
2018-10-21T13:11:19.480Z,11.94
2018-10-21T13:13:48.326Z,11.90
2018-10-21T13:16:17.299Z,11.97
2018-10-21T13:18:46.011Z,11.96
2018-10-21T13:21:14.937Z,11.88
2018-10-21T13:23:43.774Z,11.87
2018-10-21T13:26:12.633Z,11.71
2018-10-21T13:28:41.603Z,11.68
2018-10-21T13:31:10.541Z,11.65
2018-10-21T13:33:39.312Z,11.63
2018-10-21T13:36:08.096Z,11.58
2018-10-21T13:38:37.242Z,11.59
2018-10-21T13:41:06.159Z,11.59
2018-10-21T13:43:34.956Z,11.58
2018-10-21T13:46:03.936Z,11.59
2018-10-21T13:48:32.554Z,11.48
2018-10-21T13:51:01.343Z,11.57
2018-10-21T13:53:30.223Z,11.54
2018-10-21T13:56:01.989Z,11.56
2018-10-21T13:58:36.004Z,11.50
2018-10-21T14:01:05.166Z,11.43
2018-10-21T14:03:33.937Z,11.36
2018-10-21T14:06:02.930Z,11.31
2018-10-21T14:08:31.617Z,11.29
2018-10-21T14:11:00.325Z,11.27
2018-10-21T14:13:29.231Z,11.32
2018-10-21T14:15:58.267Z,11.31
2018-10-21T14:18:27.396Z,11.23
2018-10-21T14:20:56.234Z,11.37
2018-10-21T14:23:25.019Z,11.39
2018-10-21T14:25:53.756Z,11.40
2018-10-21T14:28:22.692Z,11.41
2018-10-21T14:30:51.586Z,11.40
2018-10-21T14:33:20.464Z,11.33
2018-10-21T14:35:49.215Z,11.35
2018-10-21T14:38:18.272Z,11.28
2018-10-21T14:40:46.889Z,11.27
2018-10-21T14:43:15.730Z,11.24
2018-10-21T14:45:44.635Z,11.21
2018-10-21T14:48:13.335Z,11.22
2018-10-21T14:50:42.110Z,11.20
2018-10-21T14:53:10.941Z,11.18
2018-10-21T14:55:39.740Z,11.12
2018-10-21T14:58:12.193Z,11.18
2018-10-21T15:00:41.041Z,11.15
2018-10-21T15:03:09.915Z,11.22
2018-10-21T15:05:38.663Z,11.22
2018-10-21T15:08:07.588Z,11.23
2018-10-21T15:10:36.357Z,11.13
2018-10-21T15:13:05.259Z,11.14
2018-10-21T15:15:34.306Z,11.20
2018-10-21T15:18:03.214Z,11.20
2018-10-21T15:20:31.970Z,11.21
2018-10-21T15:23:00.891Z,11.09
2018-10-21T15:25:29.790Z,11.04
2018-10-21T15:27:58.647Z,11.10
2018-10-21T15:30:27.448Z,11.06
2018-10-21T15:32:56.280Z,11.08
2018-10-21T15:35:25.121Z,11.04
2018-10-21T15:37:54.114Z,10.99
2018-10-21T15:40:23.103Z,10.98
2018-10-21T15:42:51.898Z,11.04
2018-10-21T15:45:20.685Z,10.97
2018-10-21T15:47:49.482Z,10.96
2018-10-21T15:50:18.432Z,11.00
2018-10-21T15:52:47.060Z,10.96
2018-10-21T15:55:15.851Z,10.95
2018-10-21T15:57:44.695Z,10.93
2018-10-21T16:00:13.987Z,10.80
2018-10-21T16:02:43.348Z,10.79
2018-10-21T16:05:12.644Z,10.86
2018-10-21T16:07:41.427Z,10.81
2018-10-21T16:10:10.763Z,10.83
2018-10-21T16:12:39.840Z,10.79
2018-10-21T16:15:11.277Z,10.81
2018-10-21T16:17:40.244Z,10.88
2018-10-21T16:20:09.104Z,10.83
2018-10-21T16:22:39.322Z,10.87
2018-10-21T16:25:09.751Z,10.78
2018-10-21T16:27:38.641Z,10.77
2018-10-21T16:30:09.772Z,10.71
2018-10-21T16:32:38.790Z,10.74
2018-10-21T16:35:07.987Z,10.71
2018-10-21T16:37:37.037Z,10.78
2018-10-21T16:40:07.015Z,10.76
2018-10-21T16:42:35.818Z,10.79
2018-10-21T16:45:04.652Z,10.77
2018-10-21T16:47:33.311Z,10.78
2018-10-21T16:50:02.127Z,10.73
2018-10-21T16:52:30.905Z,10.73
2018-10-21T16:54:59.679Z,10.69
2018-10-21T16:57:28.524Z,10.67
2018-10-21T16:59:57.444Z,10.70
2018-10-21T17:02:26.280Z,10.71
2018-10-21T17:04:55.111Z,10.60
2018-10-21T17:07:23.978Z,10.65
2018-10-21T17:09:53.469Z,10.63
2018-10-21T17:12:22.075Z,10.60
2018-10-21T17:14:50.932Z,10.57
2018-10-21T17:17:22.814Z,10.57
2018-10-21T17:19:51.765Z,10.52
2018-10-21T17:22:20.596Z,10.49
2018-10-21T17:24:49.899Z,10.43
2018-10-21T17:27:19.558Z,10.37
2018-10-21T17:29:48.520Z,10.32
2018-10-21T17:32:17.526Z,10.23
2018-10-21T17:34:46.922Z,10.21
2018-10-21T17:37:21.956Z,10.19
2018-10-21T17:39:51.858Z,10.14
2018-10-21T17:42:20.801Z,10.11
2018-10-21T17:44:49.977Z,10.12
2018-10-21T17:47:18.949Z,10.11
2018-10-21T17:49:47.752Z,10.11
2018-10-21T17:52:16.732Z,10.18
2018-10-21T17:54:45.498Z,10.19
2018-10-21T17:57:14.314Z,10.24
2018-10-21T17:59:43.084Z,10.28
2018-10-21T18:02:11.939Z,10.22
2018-10-21T18:04:40.706Z,10.28
2018-10-21T18:07:10.156Z,10.32
2018-10-21T18:09:39.016Z,10.37
2018-10-21T18:12:07.892Z,10.34
2018-10-21T18:14:36.784Z,10.39
2018-10-21T18:17:05.936Z,10.30
2018-10-21T18:19:34.883Z,10.35
2018-10-21T18:22:04.044Z,10.30
2018-10-21T18:24:33.562Z,10.32
2018-10-21T18:27:03.046Z,10.36
2018-10-21T18:29:32.769Z,10.35
2018-10-21T18:32:03.255Z,10.42
2018-10-21T18:34:33.834Z,10.38
2018-10-21T18:37:03.035Z,10.37
2018-10-21T18:39:32.940Z,10.45
2018-10-21T18:42:03.785Z,10.44
2018-10-21T18:44:33.248Z,10.41
2018-10-21T18:47:02.891Z,10.40
2018-10-21T18:49:36.036Z,10.35
2018-10-21T18:52:05.299Z,10.33
2018-10-21T18:54:37.444Z,10.34
2018-10-21T18:57:08.553Z,10.37
2018-10-21T18:59:38.389Z,10.33
2018-10-21T19:02:08.060Z,10.36
2018-10-21T19:04:38.038Z,10.38
2018-10-21T19:07:07.317Z,10.42
2018-10-21T19:09:36.851Z,10.40
2018-10-21T19:12:16.067Z,10.37
2018-10-21T19:14:46.371Z,10.38
2018-10-21T19:19:54.347Z,10.28
2018-10-21T19:22:23.664Z,10.31
2018-10-21T19:24:53.766Z,10.32
2018-10-21T19:27:22.839Z,10.28
2018-10-21T19:29:52.370Z,10.23
2018-10-21T19:32:21.443Z,10.23
2018-10-21T19:34:50.428Z,10.26
2018-10-21T19:37:19.774Z,10.26
2018-10-21T19:39:50.615Z,10.25
2018-10-21T19:42:19.523Z,10.29
2018-10-21T19:44:48.452Z,10.26
2018-10-21T19:47:17.558Z,10.34
2018-10-21T19:49:46.525Z,10.33
2018-10-21T19:52:15.656Z,10.36
2018-10-21T19:54:44.448Z,10.42
2018-10-21T19:57:13.336Z,10.33
2018-10-21T19:59:42.300Z,10.32
2018-10-21T20:02:11.257Z,10.34
2018-10-21T20:04:40.434Z,10.33
2018-10-21T20:07:09.482Z,10.34
2018-10-21T20:09:38.642Z,10.30
2018-10-21T20:12:09.637Z,10.21
2018-10-21T20:14:39.672Z,10.24
2018-10-21T20:17:08.790Z,10.23
2018-10-21T20:19:39.578Z,10.21
2018-10-21T20:22:11.976Z,10.17
2018-10-21T20:24:41.881Z,10.20
2018-10-21T20:27:11.125Z,10.21
2018-10-21T20:29:40.952Z,10.24
2018-10-21T20:32:11.411Z,10.23
2018-10-21T20:34:40.594Z,10.28
2018-10-21T20:37:10.427Z,10.26
2018-10-21T20:39:40.223Z,10.21
2018-10-21T20:42:09.680Z,10.18
2018-10-21T20:44:38.418Z,10.21
2018-10-21T20:47:07.405Z,10.20
2018-10-21T20:49:36.198Z,10.19
2018-10-21T20:52:05.142Z,10.21
2018-10-21T20:54:39.091Z,10.18
2018-10-21T20:57:09.730Z,10.23
2018-10-21T20:59:40.007Z,10.22
2018-10-21T21:02:10.366Z,10.14
2018-10-21T21:04:39.487Z,10.14
2018-10-21T21:07:12.355Z,10.06
2018-10-21T21:09:42.045Z,10.12
2018-10-21T21:12:11.011Z,10.04
2018-10-21T21:14:39.823Z,10.00
2018-10-21T21:17:08.614Z,9.97
2018-10-21T21:19:37.440Z,9.90
2018-10-21T21:22:06.464Z,9.88
2018-10-21T21:24:35.577Z,9.85
2018-10-21T21:27:04.879Z,9.87
2018-10-21T21:29:33.852Z,9.78
2018-10-21T21:32:02.796Z,9.93
2018-10-21T21:34:31.500Z,9.96
2018-10-21T21:37:00.339Z,9.93
2018-10-21T21:39:29.024Z,9.99
2018-10-21T21:41:57.848Z,10.00
2018-10-21T21:44:26.666Z,9.99
2018-10-21T21:46:55.348Z,10.01
2018-10-21T21:49:24.059Z,10.05
2018-10-21T21:51:52.793Z,10.07
2018-10-21T21:54:21.483Z,10.11
2018-10-21T21:56:50.363Z,10.06
2018-10-21T21:59:19.132Z,10.08
2018-10-21T22:01:47.816Z,10.08
2018-10-21T22:04:16.681Z,10.15
2018-10-21T22:06:45.388Z,10.09
2018-10-21T22:09:14.217Z,10.04
2018-10-21T22:11:42.959Z,10.04
2018-10-21T22:14:11.814Z,9.98
2018-10-21T22:16:40.505Z,10.03
2018-10-21T22:19:09.532Z,9.99
2018-10-21T22:21:39.021Z,9.96
2018-10-21T22:24:08.922Z,9.91
2018-10-21T22:26:37.736Z,9.90
2018-10-21T22:29:06.676Z,9.96
2018-10-21T22:31:35.455Z,9.95
2018-10-21T22:34:04.259Z,9.88
2018-10-21T22:36:32.943Z,9.94
2018-10-21T22:39:01.822Z,9.93
2018-10-21T22:41:30.572Z,9.89
2018-10-21T22:43:59.334Z,9.92
2018-10-21T22:46:28.123Z,9.98
2018-10-21T22:48:56.884Z,9.91
2018-10-21T22:51:25.694Z,9.91
2018-10-21T22:53:54.362Z,9.85
2018-10-21T22:56:28.475Z,9.83
2018-10-21T22:58:57.143Z,9.87
2018-10-21T23:01:25.817Z,9.86
2018-10-21T23:03:54.657Z,9.82
2018-10-21T23:06:23.531Z,9.81
2018-10-21T23:08:52.385Z,9.71
2018-10-21T23:11:21.237Z,9.71
2018-10-21T23:13:49.936Z,9.74
2018-10-21T23:16:18.864Z,9.75
2018-10-21T23:18:47.714Z,9.83
2018-10-21T23:21:16.292Z,9.76
2018-10-21T23:23:45.132Z,9.68
2018-10-21T23:26:13.928Z,9.73
2018-10-21T23:28:42.743Z,9.70
2018-10-21T23:31:11.469Z,9.70
2018-10-21T23:33:40.210Z,9.71
2018-10-21T23:36:09.020Z,9.72
2018-10-21T23:38:37.674Z,9.65
2018-10-21T23:41:06.487Z,9.62
2018-10-21T23:43:35.244Z,9.60
2018-10-21T23:46:03.957Z,9.57
2018-10-21T23:48:32.705Z,9.54
2018-10-21T23:51:01.407Z,9.52
2018-10-21T23:53:30.144Z,9.53
2018-10-21T23:55:59.063Z,9.43
2018-10-21T23:58:27.850Z,9.48
